Terminal Aerodrome Forecast
Issued by NWS

Home | Current Version | Previous Version | Graphics & Text | Print | Product List | Glossary On
Versions: 1 2 3 4 5 6 7 8 9 10 11 12 13 14 15 16 17 18 19 20 21 22
000
FTUS43 KABR 280500
TAFATY
TAF
KATY 280525Z 2806/2906 28011KT P6SM BKN045
     FM280800 28014KT P6SM OVC040
     FM281300 29015KT P6SM OVC025
     FM281600 31019G26KT P6SM OVC050
     FM290200 31009KT P6SM SKC=

USA.gov is the U.S. government's official web portal to all federal, state and local government web resources and services.